Time;durP1;ratioP1;P1;durP2;ratioP2;P2;SDS_P1;SDS_P2;PMS_P1;PMS_P2;Temp;Humidity;BMP_temperature;BMP_pressure;BME280_temperature;BME280_humidity;BME280_pressure;Samples;Min_cycle;Max_cycle;Signal;HPM_P1;HPM_P2
2023/12/19 00:01:11;;;;;;;59.80;30.80;;;;;;;;;;106976;1252;59976;-80
2023/12/19 00:03:42;;;;;;;59.30;30.70;;;;;;;;;;107046;1253;62908;-81
2023/12/19 00:06:08;;;;;;;60.80;28.40;;;;;;;;;;106986;1253;59762;-82
2023/12/19 00:08:35;;;;;;;59.30;28.60;;;;;;;;;;106938;1252;59428;-80
2023/12/19 00:11:02;;;;;;;54.70;26.80;;;;;;;;;;106834;1253;62045;-79
2023/12/19 00:13:29;;;;;;;60.80;27.50;;;;;;;;;;106930;1252;60753;-80
2023/12/19 00:15:55;;;;;;;49.80;27.20;;;;;;;;;;106996;1251;62665;-79
2023/12/19 00:18:22;;;;;;;52.00;24.90;;;;;;;;;;106853;1251;60992;-80
2023/12/19 00:20:52;;;;;;;55.00;24.00;;;;;;;;;;106874;1251;60798;-80
2023/12/19 00:23:19;;;;;;;51.00;24.50;;;;;;;;;;107000;1251;61931;-80
2023/12/19 00:25:45;;;;;;;56.10;28.10;;;;;;;;;;107008;1251;59744;-80
2023/12/19 00:28:12;;;;;;;48.20;22.00;;;;;;;;;;107060;1251;62555;-80
2023/12/19 00:30:38;;;;;;;43.10;20.50;;;;;;;;;;107023;1251;60183;-80
2023/12/19 00:33:05;;;;;;;43.80;23.10;;;;;;;;;;107012;1251;61695;-80
2023/12/19 00:35:33;;;;;;;51.20;24.40;;;;;;;;;;106831;1256;59844;-80
2023/12/19 00:38:02;;;;;;;55.00;27.80;;;;;;;;;;107023;1251;61017;-80
2023/12/19 00:40:28;;;;;;;;;;;;;;;;;;107017;1253;62870;-80
2023/12/19 00:42:55;;;;;;;47.60;23.20;;;;;;;;;;107071;1251;61620;-80
2023/12/19 00:45:21;;;;;;;36.70;17.60;;;;;;;;;;107029;1253;61001;-80
2023/12/19 00:47:48;;;;;;;34.30;17.50;;;;;;;;;;107049;1251;59917;-80
2023/12/19 00:50:15;;;;;;;42.80;19.70;;;;;;;;;;107032;1251;59851;-80
2023/12/19 00:52:42;;;;;;;41.70;20.70;;;;;;;;;;108701;1251;62036;-80
2023/12/19 00:55:08;;;;;;;29.40;15.70;;;;;;;;;;107015;1251;61638;-80
2023/12/19 00:57:35;;;;;;;35.60;17.90;;;;;;;;;;106982;1251;59761;-80
2023/12/19 01:00:02;;;;;;;34.10;17.50;;;;;;;;;;106950;1252;60795;-80
2023/12/19 01:02:29;;;;;;;29.40;16.20;;;;;;;;;;106803;1257;59520;-79
2023/12/19 01:04:57;;;;;;;38.30;18.00;;;;;;;;;;106962;1252;61940;-80
2023/12/19 01:07:23;;;;;;;33.60;16.50;;;;;;;;;;106835;1251;60776;-80
2023/12/19 01:09:50;;;;;;;28.20;13.70;;;;;;;;;;106931;1251;60487;-80
2023/12/19 01:12:18;;;;;;;31.50;13.90;;;;;;;;;;106870;1253;60867;-81
2023/12/19 01:14:44;;;;;;;31.50;15.20;;;;;;;;;;107492;1251;60837;-80
2023/12/19 01:17:11;;;;;;;29.90;14.20;;;;;;;;;;107405;1252;62823;-80
2023/12/19 01:19:37;;;;;;;28.80;13.30;;;;;;;;;;107516;1251;59851;-80
2023/12/19 01:22:04;;;;;;;31.80;17.60;;;;;;;;;;106974;1251;59675;-80
2023/12/19 01:24:31;;;;;;;33.30;16.90;;;;;;;;;;106986;1251;60968;-79
2023/12/19 01:26:57;;;;;;;26.60;14.40;;;;;;;;;;107066;1251;59730;-80
2023/12/19 01:29:23;;;;;;;26.60;13.20;;;;;;;;;;106991;1251;60951;-80
2023/12/19 01:31:51;;;;;;;33.80;15.80;;;;;;;;;;107046;1251;59753;-81
2023/12/19 01:34:17;;;;;;;31.70;14.40;;;;;;;;;;107021;1253;61993;-80
2023/12/19 01:36:45;;;;;;;29.60;14.50;;;;;;;;;;106987;1253;59744;-80
2023/12/19 01:39:12;;;;;;;29.20;14.60;;;;;;;;;;106999;1253;59764;-80
2023/12/19 01:41:38;;;;;;;32.10;15.90;;;;;;;;;;107036;1254;59806;-80
2023/12/19 01:44:05;;;;;;;27.60;13.80;;;;;;;;;;107063;1251;60808;-80
2023/12/19 01:46:32;;;;;;;26.80;13.20;;;;;;;;;;106997;1251;60892;-80
2023/12/19 01:49:00;;;;;;;28.70;15.20;;;;;;;;;;107083;1253;59856;-81
2023/12/19 01:51:27;;;;;;;27.00;14.20;;;;;;;;;;107130;1252;60190;-81
2023/12/19 01:53:53;;;;;;;32.30;16.80;;;;;;;;;;107083;1253;62658;-80
2023/12/19 01:56:20;;;;;;;27.10;14.10;;;;;;;;;;107695;1251;59828;-80
2023/12/19 01:58:46;;;;;;;30.60;14.70;;;;;;;;;;109509;1251;58902;-80
2023/12/19 02:01:13;;;;;;;36.00;17.30;;;;;;;;;;109507;1251;59247;-80
2023/12/19 02:03:40;;;;;;;27.50;13.30;;;;;;;;;;109474;1251;59137;-80
2023/12/19 02:06:06;;;;;;;30.80;14.30;;;;;;;;;;109512;1251;62464;-80
2023/12/19 02:08:33;;;;;;;27.10;14.40;;;;;;;;;;109471;1251;58956;-80
2023/12/19 02:10:59;;;;;;;23.60;12.70;;;;;;;;;;109446;1251;59116;-80
2023/12/19 02:13:26;;;;;;;29.60;14.50;;;;;;;;;;109469;1251;59165;-80
2023/12/19 02:15:53;;;;;;;24.50;14.60;;;;;;;;;;107554;1253;59901;-80
2023/12/19 02:18:20;;;;;;;29.00;15.40;;;;;;;;;;106925;1253;62033;-80
2023/12/19 02:20:46;;;;;;;24.20;13.70;;;;;;;;;;106990;1251;60933;-81
2023/12/19 02:23:13;;;;;;;27.20;12.70;;;;;;;;;;107002;1255;60708;-79
2023/12/19 02:25:39;;;;;;;29.40;13.50;;;;;;;;;;109594;1250;58948;-80
2023/12/19 02:28:06;;;;;;;21.20;11.90;;;;;;;;;;109624;1250;59013;-80
2023/12/19 02:30:35;;;;;;;25.50;13.10;;;;;;;;;;109578;1250;60574;-80
2023/12/19 02:33:01;;;;;;;25.10;13.50;;;;;;;;;;109625;1250;59100;-80
2023/12/19 02:35:28;;;;;;;25.40;11.40;;;;;;;;;;109616;1251;60212;-80
2023/12/19 02:37:54;;;;;;;24.70;12.40;;;;;;;;;;109609;1250;59176;-80
2023/12/19 02:40:21;;;;;;;21.10;14.90;;;;;;;;;;107981;1251;59284;-80
2023/12/19 02:42:48;;;;;;;25.10;13.80;;;;;;;;;;107083;1250;61566;-80
2023/12/19 02:45:14;;;;;;;23.70;12.30;;;;;;;;;;107078;1253;61909;-80
2023/12/19 02:47:41;;;;;;;24.00;13.70;;;;;;;;;;106978;1251;60469;-79
2023/12/19 02:50:07;;;;;;;30.60;13.20;;;;;;;;;;107064;1251;59996;-81
2023/12/19 02:52:34;;;;;;;26.00;14.80;;;;;;;;;;107084;1253;60843;-80
2023/12/19 02:55:01;;;;;;;20.80;11.50;;;;;;;;;;106959;1253;62529;-80
2023/12/19 02:57:28;;;;;;;20.30;11.80;;;;;;;;;;106867;1253;60890;-80
2023/12/19 02:59:54;;;;;;;22.60;12.30;;;;;;;;;;106854;1253;59677;-80
2023/12/19 03:02:21;;;;;;;22.60;11.70;;;;;;;;;;106904;1252;60678;-79
2023/12/19 03:04:47;;;;;;;22.10;11.40;;;;;;;;;;106853;1252;59829;-80
2023/12/19 03:07:14;;;;;;;34.70;22.90;;;;;;;;;;106871;1253;59842;-80
2023/12/19 03:09:40;;;;;;;34.20;15.90;;;;;;;;;;106918;1253;60682;-81
2023/12/19 03:12:07;;;;;;;26.40;13.90;;;;;;;;;;106832;1251;60843;-80
2023/12/19 03:14:34;;;;;;;21.70;11.30;;;;;;;;;;106887;1255;60869;-79
2023/12/19 03:17:01;;;;;;;20.50;12.00;;;;;;;;;;106928;1251;62144;-79
2023/12/19 03:19:27;;;;;;;19.70;11.50;;;;;;;;;;106875;1253;62622;-79
2023/12/19 03:21:54;;;;;;;18.70;10.10;;;;;;;;;;106968;1253;59820;-80
2023/12/19 03:24:24;;;;;;;20.50;10.50;;;;;;;;;;106964;1253;60860;-80
2023/12/19 03:26:50;;;;;;;24.70;11.50;;;;;;;;;;106989;1253;59753;-80
2023/12/19 03:29:16;;;;;;;17.80;9.20;;;;;;;;;;107002;1253;60857;-80
2023/12/19 03:31:43;;;;;;;16.90;9.00;;;;;;;;;;107043;1252;61913;-81
2023/12/19 03:34:10;;;;;;;18.20;9.50;;;;;;;;;;107002;1252;59793;-80
2023/12/19 03:36:36;;;;;;;20.50;10.70;;;;;;;;;;106994;1250;59715;-80
2023/12/19 03:39:03;;;;;;;18.00;11.40;;;;;;;;;;107017;1253;60577;-80
2023/12/19 03:41:30;;;;;;;31.70;16.70;;;;;;;;;;108088;1251;60875;-80
2023/12/19 03:43:56;;;;;;;22.90;12.80;;;;;;;;;;109577;1251;62557;-80
2023/12/19 03:46:23;;;;;;;52.30;25.00;;;;;;;;;;109559;1251;58909;-80
2023/12/19 03:48:49;;;;;;;36.80;14.90;;;;;;;;;;109551;1250;58830;-80
2023/12/19 03:51:16;;;;;;;23.90;10.50;;;;;;;;;;109574;1250;59180;-80
2023/12/19 03:53:42;;;;;;;35.40;19.60;;;;;;;;;;109545;1251;59056;-80
2023/12/19 03:56:09;;;;;;;41.30;20.80;;;;;;;;;;107156;1253;60951;-80
2023/12/19 03:58:37;;;;;;;37.70;16.00;;;;;;;;;;106866;1253;59798;-80
2023/12/19 04:01:04;;;;;;;28.10;14.90;;;;;;;;;;106925;1253;59727;-80
2023/12/19 04:03:30;;;;;;;24.20;10.70;;;;;;;;;;106807;1251;60842;-80
2023/12/19 04:05:57;;;;;;;32.30;17.50;;;;;;;;;;106864;1253;59177;-80
2023/12/19 04:08:23;;;;;;;33.00;15.10;;;;;;;;;;106868;1253;59751;-80
2023/12/19 04:10:50;;;;;;;25.80;13.20;;;;;;;;;;106872;1252;59738;-80
2023/12/19 04:13:16;;;;;;;37.60;16.60;;;;;;;;;;106878;1253;59859;-80
2023/12/19 04:15:42;;;;;;;26.20;13.60;;;;;;;;;;106925;1252;60907;-80
2023/12/19 04:18:10;;;;;;;24.60;12.60;;;;;;;;;;106852;1253;59777;-81
2023/12/19 04:20:36;;;;;;;33.40;18.50;;;;;;;;;;106935;1253;62119;-79
2023/12/19 04:23:03;;;;;;;31.20;15.50;;;;;;;;;;107093;1251;59896;-80
2023/12/19 04:25:29;;;;;;;28.90;15.50;;;;;;;;;;107012;1251;59754;-80
2023/12/19 04:27:56;;;;;;;56.90;29.10;;;;;;;;;;106986;1251;59500;-80
2023/12/19 04:30:22;;;;;;;37.80;21.10;;;;;;;;;;107009;1251;59630;-80
2023/12/19 04:32:49;;;;;;;42.30;23.40;;;;;;;;;;107047;1253;60789;-80
2023/12/19 04:35:15;;;;;;;35.40;17.10;;;;;;;;;;107056;1254;59899;-80
2023/12/19 04:37:42;;;;;;;24.20;12.30;;;;;;;;;;107061;1252;59272;-80
2023/12/19 04:40:08;;;;;;;30.70;15.00;;;;;;;;;;106962;1253;60949;-81
2023/12/19 04:42:35;;;;;;;28.30;15.70;;;;;;;;;;107520;1252;59213;-80
2023/12/19 04:45:01;;;;;;;32.00;20.00;;;;;;;;;;107487;1256;59746;-80
2023/12/19 04:47:28;;;;;;;17.60;10.70;;;;;;;;;;107522;1253;59586;-80
2023/12/19 04:49:55;;;;;;;32.10;16.20;;;;;;;;;;107478;1253;61336;-80
2023/12/19 04:52:21;;;;;;;29.10;19.40;;;;;;;;;;107518;1251;60952;-80
2023/12/19 04:54:48;;;;;;;24.40;14.60;;;;;;;;;;106954;1252;62066;-80
2023/12/19 04:57:15;;;;;;;26.00;13.40;;;;;;;;;;106920;1253;60820;-80
2023/12/19 04:59:41;;;;;;;20.50;10.10;;;;;;;;;;106876;1253;59879;-80
2023/12/19 05:02:08;;;;;;;19.20;10.60;;;;;;;;;;106895;1253;60651;-80
2023/12/19 05:04:34;;;;;;;17.30;9.90;;;;;;;;;;106897;1253;59839;-80
2023/12/19 05:07:01;;;;;;;23.60;14.20;;;;;;;;;;107116;1253;59825;-81
2023/12/19 05:09:27;;;;;;;24.10;12.30;;;;;;;;;;106872;1253;59505;-81
2023/12/19 05:11:54;;;;;;;22.70;11.20;;;;;;;;;;106937;1253;59821;-80
2023/12/19 05:14:20;;;;;;;17.90;10.30;;;;;;;;;;106915;1254;59802;-82
2023/12/19 05:16:47;;;;;;;14.80;8.80;;;;;;;;;;106798;1253;60821;-80
2023/12/19 05:19:13;;;;;;;28.70;16.30;;;;;;;;;;106904;1253;59686;-80
2023/12/19 05:21:40;;;;;;;22.90;11.90;;;;;;;;;;106941;1253;60697;-80
2023/12/19 05:24:09;;;;;;;16.60;8.40;;;;;;;;;;107080;1254;60868;-80
2023/12/19 05:26:35;;;;;;;19.70;12.30;;;;;;;;;;107046;1253;59817;-80
2023/12/19 05:29:02;;;;;;;20.10;10.40;;;;;;;;;;107026;1254;60807;-80
2023/12/19 05:31:28;;;;;;;23.60;14.00;;;;;;;;;;107049;1251;59784;-80
2023/12/19 05:33:55;;;;;;;38.40;21.90;;;;;;;;;;107045;1251;62960;-80
2023/12/19 05:36:22;;;;;;;29.40;16.30;;;;;;;;;;107633;1255;59899;-81
2023/12/19 05:38:48;;;;;;;21.20;13.10;;;;;;;;;;107598;1251;60738;-80
2023/12/19 05:41:16;;;;;;;26.10;15.50;;;;;;;;;;107578;1252;60224;-80
2023/12/19 05:43:43;;;;;;;30.40;17.30;;;;;;;;;;107582;1251;59723;-80
2023/12/19 05:46:10;;;;;;;35.10;19.50;;;;;;;;;;107036;1251;60812;-80
2023/12/19 05:48:36;;;;;;;33.00;17.40;;;;;;;;;;107012;1254;62026;-80
2023/12/19 05:51:03;;;;;;;29.40;16.10;;;;;;;;;;106964;1251;59788;-81
2023/12/19 05:53:30;;;;;;;29.60;17.00;;;;;;;;;;106963;1251;59155;-80
2023/12/19 05:55:56;;;;;;;24.50;17.10;;;;;;;;;;106958;1254;59736;-80
2023/12/19 05:58:23;;;;;;;18.80;10.40;;;;;;;;;;106903;1254;59854;-79
2023/12/19 06:00:50;;;;;;;29.80;16.30;;;;;;;;;;107411;1252;60899;-80
2023/12/19 06:03:16;;;;;;;30.70;16.00;;;;;;;;;;107411;1253;59686;-80
2023/12/19 06:05:43;;;;;;;61.30;30.90;;;;;;;;;;107413;1253;59792;-79
2023/12/19 06:08:09;;;;;;;38.00;20.60;;;;;;;;;;107257;1253;59758;-80
2023/12/19 06:10:35;;;;;;;33.90;18.30;;;;;;;;;;107512;1251;60855;-80
2023/12/19 06:13:02;;;;;;;27.30;16.70;;;;;;;;;;107733;1251;60362;-80
2023/12/19 06:15:29;;;;;;;30.20;14.70;;;;;;;;;;107409;1253;61265;-80
2023/12/19 06:17:55;;;;;;;27.30;13.50;;;;;;;;;;107027;1253;59804;-80
2023/12/19 06:20:23;;;;;;;30.20;15.60;;;;;;;;;;107128;1254;61108;-80
2023/12/19 06:22:49;;;;;;;34.70;15.20;;;;;;;;;;108035;1253;60448;-80
2023/12/19 06:25:16;;;;;;;31.70;16.80;;;;;;;;;;107054;1251;60288;-80
2023/12/19 06:27:44;;;;;;;31.90;17.20;;;;;;;;;;107132;1254;59880;-80
2023/12/19 06:30:10;;;;;;;32.80;16.70;;;;;;;;;;107089;1256;60808;-80
2023/12/19 06:32:37;;;;;;;32.80;15.90;;;;;;;;;;106909;1252;175665;-80
2023/12/19 06:35:07;;;;;;;28.40;14.20;;;;;;;;;;107093;1251;62187;-81
2023/12/19 06:37:34;;;;;;;33.30;14.70;;;;;;;;;;107092;1253;59682;-81
2023/12/19 06:40:02;;;;;;;30.20;14.10;;;;;;;;;;108007;1251;59451;-80
2023/12/19 06:42:29;;;;;;;18.90;10.20;;;;;;;;;;107064;1254;60795;-80
2023/12/19 06:44:55;;;;;;;39.40;18.60;;;;;;;;;;107085;1251;59792;-80
2023/12/19 06:47:22;;;;;;;31.70;16.00;;;;;;;;;;107060;1252;59932;-80
2023/12/19 06:49:48;;;;;;;32.90;16.40;;;;;;;;;;107057;1252;60827;-80
2023/12/19 06:52:15;;;;;;;38.20;18.20;;;;;;;;;;107026;1251;59668;-80
2023/12/19 06:54:41;;;;;;;47.20;24.50;;;;;;;;;;107095;1251;59897;-80
2023/12/19 06:57:08;;;;;;;50.40;31.30;;;;;;;;;;107068;1251;59875;-80
2023/12/19 06:59:34;;;;;;;52.20;29.70;;;;;;;;;;107038;1253;59258;-80
2023/12/19 07:02:01;;;;;;;48.10;23.30;;;;;;;;;;107592;1254;59908;-80
2023/12/19 07:04:27;;;;;;;50.60;26.70;;;;;;;;;;107801;1251;61864;-80
2023/12/19 07:06:54;;;;;;;40.10;22.80;;;;;;;;;;107663;1253;59184;-80
2023/12/19 07:09:20;;;;;;;57.00;35.40;;;;;;;;;;107654;1251;60723;-80
2023/12/19 07:11:47;;;;;;;42.70;21.90;;;;;;;;;;107080;1251;61018;-80
2023/12/19 07:14:13;;;;;;;47.80;27.40;;;;;;;;;;107255;1251;62163;-80
2023/12/19 07:16:40;;;;;;;45.40;26.40;;;;;;;;;;107149;1254;60820;-80
2023/12/19 07:19:07;;;;;;;55.70;33.40;;;;;;;;;;107159;1251;60851;-79
2023/12/19 07:21:35;;;;;;;61.30;40.40;;;;;;;;;;107117;1254;59830;-80
2023/12/19 07:24:01;;;;;;;54.30;32.60;;;;;;;;;;107166;1255;62099;-80
2023/12/19 07:26:28;;;;;;;55.80;31.20;;;;;;;;;;107957;1251;59670;-80
2023/12/19 07:28:57;;;;;;;56.80;30.30;;;;;;;;;;107510;1251;61393;-80
2023/12/19 07:31:24;;;;;;;44.00;24.20;;;;;;;;;;109482;1252;59112;-80
2023/12/19 07:33:53;;;;;;;39.70;22.40;;;;;;;;;;109581;1251;59272;-80
2023/12/19 07:36:19;;;;;;;;;;;;;;;;;;109484;1253;60907;-80
2023/12/19 07:38:46;;;;;;;47.60;28.00;;;;;;;;;;109524;1251;59143;-80
2023/12/19 07:41:12;;;;;;;48.70;29.80;;;;;;;;;;109487;1254;59030;-81
2023/12/19 07:43:39;;;;;;;62.20;37.60;;;;;;;;;;109465;1251;58870;-79
2023/12/19 07:46:06;;;;;;;87.60;60.90;;;;;;;;;;109403;1251;59185;-80
2023/12/19 07:48:32;;;;;;;73.90;45.90;;;;;;;;;;109470;1255;62146;-80
2023/12/19 07:50:59;;;;;;;63.30;36.50;;;;;;;;;;109453;1254;59241;-80
2023/12/19 07:53:26;;;;;;;88.00;48.00;;;;;;;;;;109480;1254;59483;-79
2023/12/19 07:55:52;;;;;;;63.70;38.00;;;;;;;;;;109497;1251;58884;-80
2023/12/19 07:58:19;;;;;;;63.80;37.70;;;;;;;;;;109481;1254;58793;-80
2023/12/19 08:00:47;;;;;;;44.60;28.20;;;;;;;;;;109486;1251;61628;-81
2023/12/19 08:03:15;;;;;;;105.50;64.30;;;;;;;;;;109460;1251;59278;-81
2023/12/19 08:05:53;;;;;;;52.00;32.80;;;;;;;;;;109440;1255;60929;-81
2023/12/19 08:08:20;;;;;;;42.40;22.30;;;;;;;;;;109483;1251;59089;-81
2023/12/19 08:10:46;;;;;;;40.10;22.70;;;;;;;;;;109460;1255;58968;-82
2023/12/19 08:13:13;;;;;;;50.60;28.20;;;;;;;;;;109479;1251;62574;-80
2023/12/19 08:15:42;;;;;;;45.10;26.70;;;;;;;;;;109432;1251;59470;-80
2023/12/19 08:18:09;;;;;;;97.10;52.30;;;;;;;;;;109468;1251;60231;-80
2023/12/19 08:20:36;;;;;;;62.60;32.20;;;;;;;;;;109465;1251;59228;-80
2023/12/19 08:23:03;;;;;;;56.40;31.70;;;;;;;;;;109441;1251;59239;-79
2023/12/19 08:25:29;;;;;;;185.10;88.60;;;;;;;;;;109487;1251;60689;-80
2023/12/19 08:27:56;;;;;;;156.10;82.20;;;;;;;;;;109462;1251;59140;-80
2023/12/19 08:30:25;;;;;;;263.80;127.80;;;;;;;;;;109449;1251;59111;-80
2023/12/19 08:32:51;;;;;;;206.00;110.50;;;;;;;;;;109483;1255;59195;-80
2023/12/19 08:35:18;;;;;;;105.70;60.40;;;;;;;;;;109463;1251;58994;-80
2023/12/19 08:37:45;;;;;;;480.70;271.10;;;;;;;;;;109438;1252;62900;-80
2023/12/19 08:40:12;;;;;;;250.40;132.70;;;;;;;;;;109464;1254;59169;-80
2023/12/19 08:42:39;;;;;;;164.20;111.20;;;;;;;;;;109424;1251;59432;-80
2023/12/19 08:45:06;;;;;;;102.00;58.40;;;;;;;;;;108539;1251;59200;-80
2023/12/19 08:47:32;;;;;;;66.80;38.60;;;;;;;;;;107597;1257;59745;-79
2023/12/19 08:49:59;;;;;;;60.30;34.10;;;;;;;;;;107309;1255;60684;-79
2023/12/19 08:52:26;;;;;;;65.40;35.30;;;;;;;;;;107350;1251;59785;-80
2023/12/19 08:54:52;;;;;;;101.80;60.40;;;;;;;;;;107103;1251;60380;-80
2023/12/19 08:57:19;;;;;;;80.80;43.50;;;;;;;;;;107197;1251;59842;-80
2023/12/19 08:59:46;;;;;;;77.90;44.30;;;;;;;;;;107370;1251;59835;-80
2023/12/19 09:02:12;;;;;;;97.70;50.70;;;;;;;;;;107961;1251;60782;-81
2023/12/19 09:04:39;;;;;;;124.90;68.90;;;;;;;;;;107986;1251;59586;-80
2023/12/19 09:07:06;;;;;;;96.60;55.00;;;;;;;;;;108094;1251;59375;-81
2023/12/19 09:09:33;;;;;;;335.70;157.50;;;;;;;;;;108408;1251;60262;-80
2023/12/19 09:11:59;;;;;;;253.30;122.80;;;;;;;;;;109179;1251;58920;-80
2023/12/19 09:14:26;;;;;;;184.10;90.90;;;;;;;;;;107739;1251;59812;-80
2023/12/19 09:16:54;;;;;;;160.40;82.90;;;;;;;;;;107712;1251;60400;-80
2023/12/19 09:19:20;;;;;;;111.70;59.10;;;;;;;;;;108101;1251;59337;-80
2023/12/19 09:21:47;;;;;;;88.70;54.50;;;;;;;;;;109595;1251;58876;-80
2023/12/19 09:24:13;;;;;;;88.30;51.60;;;;;;;;;;108049;1251;59696;-80
2023/12/19 09:26:40;;;;;;;109.30;57.20;;;;;;;;;;107240;1251;60209;-80
2023/12/19 09:29:06;;;;;;;81.20;41.90;;;;;;;;;;107475;1254;59744;-80
2023/12/19 09:31:33;;;;;;;64.60;33.80;;;;;;;;;;107374;1251;59449;-80
2023/12/19 09:34:00;;;;;;;75.90;41.40;;;;;;;;;;107461;1250;59528;-80
2023/12/19 09:36:27;;;;;;;64.80;37.70;;;;;;;;;;107447;1251;59798;-80
2023/12/19 09:38:54;;;;;;;79.20;43.60;;;;;;;;;;107525;1251;61201;-81
2023/12/19 09:41:20;;;;;;;73.70;39.90;;;;;;;;;;107324;1252;59766;-80
2023/12/19 09:43:47;;;;;;;75.50;41.60;;;;;;;;;;107420;1251;61935;-80
2023/12/19 09:46:13;;;;;;;67.70;34.70;;;;;;;;;;107561;1251;59740;-80
2023/12/19 09:48:41;;;;;;;68.50;35.70;;;;;;;;;;107261;1251;59185;-80
2023/12/19 09:51:11;;;;;;;69.00;35.70;;;;;;;;;;106934;1251;60673;-80
2023/12/19 09:53:38;;;;;;;58.50;31.90;;;;;;;;;;106968;1254;59753;-81
2023/12/19 09:56:05;;;;;;;71.80;37.90;;;;;;;;;;106931;1251;60847;-80
2023/12/19 09:58:32;;;;;;;83.10;43.10;;;;;;;;;;107131;1251;60013;-81
2023/12/19 10:00:59;;;;;;;91.50;49.30;;;;;;;;;;107090;1251;61026;-80
2023/12/19 10:03:27;;;;;;;77.30;42.00;;;;;;;;;;107097;1250;60925;-81
2023/12/19 10:05:54;;;;;;;69.00;38.20;;;;;;;;;;107641;1251;59882;-80
2023/12/19 10:08:21;;;;;;;65.20;37.00;;;;;;;;;;107668;1251;60742;-80
2023/12/19 10:10:54;;;;;;;61.40;34.50;;;;;;;;;;107532;1251;60965;-81
2023/12/19 10:13:31;;;;;;;65.30;35.90;;;;;;;;;;107659;1251;59779;-80
2023/12/19 10:15:58;;;;;;;67.40;39.10;;;;;;;;;;107062;1251;62080;-80
2023/12/19 10:18:25;;;;;;;90.70;46.20;;;;;;;;;;107462;1251;60563;-80
2023/12/19 10:21:02;;;;;;;149.50;50.60;;;;;;;;;;107112;1251;59795;-80
2023/12/19 10:23:28;;;;;;;87.10;41.00;;;;;;;;;;107432;1254;59786;-81
2023/12/19 10:25:55;;;;;;;78.80;34.70;;;;;;;;;;107074;1251;59740;-81
2023/12/19 10:28:21;;;;;;;61.70;30.90;;;;;;;;;;107342;1251;61207;-81
2023/12/19 10:30:48;;;;;;;56.50;26.90;;;;;;;;;;106984;1251;59828;-80
2023/12/19 10:33:14;;;;;;;48.70;26.00;;;;;;;;;;107352;1251;59377;-80
2023/12/19 10:35:42;;;;;;;65.90;30.10;;;;;;;;;;107766;1255;59795;-80
2023/12/19 10:38:09;;;;;;;62.30;32.40;;;;;;;;;;107350;1251;59731;-80
2023/12/19 10:40:38;;;;;;;110.50;51.20;;;;;;;;;;107471;1250;62002;-80
2023/12/19 10:43:05;;;;;;;93.50;44.70;;;;;;;;;;107498;1251;59790;-80
2023/12/19 10:45:32;;;;;;;100.70;50.30;;;;;;;;;;107627;1251;61849;-80
2023/12/19 10:47:58;;;;;;;124.00;61.00;;;;;;;;;;107667;1252;60808;-80
2023/12/19 10:50:27;;;;;;;114.30;66.90;;;;;;;;;;107040;1251;60922;-81
2023/12/19 10:52:53;;;;;;;121.70;62.40;;;;;;;;;;107099;1251;62544;-81
2023/12/19 10:55:21;;;;;;;49.10;26.40;;;;;;;;;;107086;1251;61049;-81
2023/12/19 10:57:48;;;;;;;40.40;22.10;;;;;;;;;;107498;1251;59802;-80
2023/12/19 11:00:21;;;;;;;31.40;18.60;;;;;;;;;;108059;1251;60814;-81
2023/12/19 11:03:06;;;;;;;38.50;22.90;;;;;;;;;;107925;1251;60716;-80
2023/12/19 11:05:39;;;;;;;40.60;21.80;;;;;;;;;;107961;1251;62022;-81
2023/12/19 11:08:08;;;;;;;56.50;33.20;;;;;;;;;;107957;1251;59163;-80
2023/12/19 11:10:39;;;;;;;58.70;32.20;;;;;;;;;;107815;1251;59475;-81
2023/12/19 11:13:05;;;;;;;51.50;30.30;;;;;;;;;;107863;1251;62031;-81
2023/12/19 11:15:32;;;;;;;86.80;43.00;;;;;;;;;;107624;1251;60747;-81
2023/12/19 11:18:00;;;;;;;122.60;57.90;;;;;;;;;;107791;1251;61574;-80
2023/12/19 11:20:33;;;;;;;85.40;40.50;;;;;;;;;;107508;1251;62105;-81
2023/12/19 11:23:19;;;;;;;58.90;32.70;;;;;;;;;;107655;1251;62140;-81
2023/12/19 11:25:47;;;;;;;64.20;34.00;;;;;;;;;;107541;1250;61038;-82
2023/12/19 11:28:14;;;;;;;53.70;26.00;;;;;;;;;;107808;1250;60726;-80
2023/12/19 11:30:41;;;;;;;50.40;28.00;;;;;;;;;;107586;1251;63030;-81
2023/12/19 11:33:11;;;;;;;24.80;14.70;;;;;;;;;;107536;1251;59807;-80
2023/12/19 11:35:37;;;;;;;17.60;10.30;;;;;;;;;;107638;1250;60328;-80
2023/12/19 11:38:13;;;;;;;28.80;13.20;;;;;;;;;;107775;1251;59809;-80
2023/12/19 11:40:45;;;;;;;21.30;9.30;;;;;;;;;;107435;1251;60778;-80
2023/12/19 11:43:27;;;;;;;16.50;8.60;;;;;;;;;;107441;1251;60658;-81
2023/12/19 11:45:54;;;;;;;13.50;6.90;;;;;;;;;;107553;1251;60970;-81
2023/12/19 11:48:34;;;;;;;11.60;5.20;;;;;;;;;;107581;1251;60744;-80
2023/12/19 11:51:00;;;;;;;8.90;5.10;;;;;;;;;;107642;1251;60968;-80
2023/12/19 11:53:27;;;;;;;13.50;6.90;;;;;;;;;;107496;1251;59827;-81
2023/12/19 11:56:08;;;;;;;19.00;9.70;;;;;;;;;;107558;1251;59739;-80
2023/12/19 11:58:35;;;;;;;12.70;7.50;;;;;;;;;;107700;1251;59767;-81
2023/12/19 12:01:02;;;;;;;19.80;10.80;;;;;;;;;;107577;1250;61952;-81
2023/12/19 12:03:29;;;;;;;21.00;11.20;;;;;;;;;;107629;1251;59777;-81
2023/12/19 12:05:55;;;;;;;22.00;12.40;;;;;;;;;;107137;1251;60972;-80
2023/12/19 12:08:22;;;;;;;14.60;8.50;;;;;;;;;;107176;1251;61563;-81
2023/12/19 12:10:56;;;;;;;7.50;4.80;;;;;;;;;;107577;1251;59779;-81
2023/12/19 12:13:23;;;;;;;14.80;8.80;;;;;;;;;;107689;1254;62137;-81
2023/12/19 12:15:55;;;;;;;18.00;8.50;;;;;;;;;;107528;1251;59378;-81
2023/12/19 12:18:22;;;;;;;8.50;5.00;;;;;;;;;;107654;1250;59793;-81
2023/12/19 12:20:48;;;;;;;11.10;6.10;;;;;;;;;;107814;1250;60825;-80
2023/12/19 12:23:21;;;;;;;23.90;11.40;;;;;;;;;;107594;1251;59803;-81
2023/12/19 12:25:55;;;;;;;22.60;11.60;;;;;;;;;;107660;1256;59917;-81
2023/12/19 12:28:25;;;;;;;21.40;9.50;;;;;;;;;;107779;1251;59690;-82
2023/12/19 12:30:55;;;;;;;78.40;32.90;;;;;;;;;;107626;1251;59097;-81
2023/12/19 12:33:22;;;;;;;57.20;25.90;;;;;;;;;;107504;1250;62027;-81
2023/12/19 12:35:49;;;;;;;40.60;20.20;;;;;;;;;;107668;1251;60732;-81
2023/12/19 12:38:18;;;;;;;26.10;13.30;;;;;;;;;;107834;1251;59789;-80
2023/12/19 12:41:04;;;;;;;23.70;12.70;;;;;;;;;;107481;1254;61085;-80
2023/12/19 12:43:39;;;;;;;12.10;6.40;;;;;;;;;;107558;1250;59682;-82
2023/12/19 12:46:12;;;;;;;10.90;5.70;;;;;;;;;;107714;1251;61952;-80
2023/12/19 12:48:40;;;;;;;7.10;4.30;;;;;;;;;;107668;1251;59674;-81
2023/12/19 12:51:07;;;;;;;6.70;3.40;;;;;;;;;;107570;1251;62152;-81
2023/12/19 12:53:33;;;;;;;4.90;3.10;;;;;;;;;;107666;1250;59802;-81
2023/12/19 12:56:12;;;;;;;14.00;6.00;;;;;;;;;;107745;1251;59996;-82
2023/12/19 12:58:39;;;;;;;6.80;3.90;;;;;;;;;;107693;1251;61722;-80
2023/12/19 13:01:05;;;;;;;108.10;57.60;;;;;;;;;;107536;1251;59746;-80
2023/12/19 13:03:32;;;;;;;45.60;26.10;;;;;;;;;;107463;1251;60079;-80
2023/12/19 13:06:02;;;;;;;6.60;3.60;;;;;;;;;;107513;1251;59836;-81
2023/12/19 13:08:29;;;;;;;4.60;3.10;;;;;;;;;;107481;1251;61263;-80
2023/12/19 13:10:58;;;;;;;26.40;11.00;;;;;;;;;;107582;1251;61596;-81
2023/12/19 13:13:24;;;;;;;5.90;3.50;;;;;;;;;;107800;1251;59815;-81
2023/12/19 13:15:52;;;;;;;28.60;8.70;;;;;;;;;;107980;1251;59538;-80
2023/12/19 13:18:21;;;;;;;14.10;5.30;;;;;;;;;;108093;1251;59812;-80
2023/12/19 13:20:47;;;;;;;36.00;19.20;;;;;;;;;;107922;1254;59803;-81
2023/12/19 13:23:14;;;;;;;7.30;4.10;;;;;;;;;;107886;1251;62567;-80
2023/12/19 13:25:40;;;;;;;7.40;5.20;;;;;;;;;;107951;1251;59742;-81
2023/12/19 13:28:13;;;;;;;10.90;5.20;;;;;;;;;;108136;1250;59750;-80
2023/12/19 13:30:40;;;;;;;9.20;5.10;;;;;;;;;;107934;1250;59875;-80
2023/12/19 13:33:10;;;;;;;22.70;8.20;;;;;;;;;;107992;1251;59805;-81
2023/12/19 13:35:37;;;;;;;17.00;8.50;;;;;;;;;;107863;1251;62246;-80
2023/12/19 13:38:03;;;;;;;18.50;9.20;;;;;;;;;;108124;1250;60778;-81
2023/12/19 13:40:30;;;;;;;41.50;19.80;;;;;;;;;;107977;1251;59807;-81
2023/12/19 13:42:57;;;;;;;21.80;10.20;;;;;;;;;;107715;1251;60915;-80
2023/12/19 13:45:25;;;;;;;14.40;9.20;;;;;;;;;;107899;1250;59815;-81
2023/12/19 13:47:52;;;;;;;6.20;3.20;;;;;;;;;;108158;1250;61765;-81
2023/12/19 13:50:20;;;;;;;7.80;4.90;;;;;;;;;;107924;1254;62052;-81
2023/12/19 13:52:47;;;;;;;8.20;5.20;;;;;;;;;;107935;1250;61265;-81
2023/12/19 13:55:14;;;;;;;8.30;4.00;;;;;;;;;;107820;1251;60972;-80
2023/12/19 13:57:40;;;;;;;10.10;6.90;;;;;;;;;;107467;1251;61874;-81
2023/12/19 14:00:07;;;;;;;10.30;5.40;;;;;;;;;;107277;1251;59885;-80
2023/12/19 14:02:34;;;;;;;9.50;3.60;;;;;;;;;;107226;1251;61126;-81
2023/12/19 14:05:01;;;;;;;33.90;18.80;;;;;;;;;;107206;1256;59857;-80
2023/12/19 14:07:28;;;;;;;21.70;12.50;;;;;;;;;;108061;1251;60714;-81